Shanghai Pudong International Airport
ZSPD : now visible

Airfield :











YOU CAN JOIN US ON...

 
LOGIN :

Register | Disclaimer

   EN    FR    IT 

 









Legend :    VFR   Marginal VFR   IFR   Intensive IFR   Very Intensive IFR
Visi :
Ceiling :
>= 8 km
>= 3000ft
5 to 8 km
1000 to 3000 ft
1500m to 5 km
500 to 1000 ft
800 to 1500m
200 to 500 ft
< 800m
< 200 ft
Symbols :   Thunderstorms  Fog  Heavy snow  Heavy precipitations  Wind > 20 kt







- Airport Elevation : 13 ft
- IATA code : PVG


ZSPD - Shanghai Pudong International

CURRENT METAR :
  • 210530Z 05006MPS 7000 -RA NSC 08/04 Q1025 NOSIG

EXPIRED METARs :
  • 210500Z 04006MPS 360V070 7000 FEW026 08/04 Q1026 NOSIG
  • 210430Z 04005MPS 360V070 7000 NSC 08/05 Q1026 NOSIG
  • 210400Z 03005MPS 7000 NSC 08/05 Q1027 NOSIG
  • 210330Z 03005MPS 350V060 7000 NSC 08/04 Q1028 NOSIG
  • 210300Z 03006MPS 7000 NSC 08/04 Q1027 NOSIG

TAF TAF ZSPD
Valid from the 21 at 06:00 until the 22 at 06:00 UTC


210317Z 2106/2206 05005MPS 5000 BR BKN013 TX09/2106Z TN05/2121Z
BECMG 2119/2120 35005MPS
ZSHA FIR / Asia



MET'MAP, your aeronautical weather chart ! - Copyright ORBIFLY December 2007 - Disclaimer

ORBIFLY MET'MAP TEAM :

Programming & Development : Alexandra Zaïnal
Concept & Development : Baudouin d'Aumeries
Co-Development & Prog : Marc-Olivier Méhu
Technical & hardware support : Manuel Goepfert

Contact : metmap@orbifly.com




SOURCES & CREDITS :

   NOAA       Earth
Advisory